»·PEaware :: N172KA TNP-KPRC

N172KA :: TNP-KPRC

FLIGHT INFORMATION

Flight Status: Arrived
Operator: Privately registered:
United States
More flights under this callsign
Pilot: Tomas M. (4063)
Aircraft: CIRRUS SR-22 TURBO
(S22T)
More flights by this aircraft type
Origin: TNP
Destination: KPRC Love
United States
More flights between these airports :: More routes between these airports
Route: J231 DRK
File this flight plan on PilotEdge
Remarks:
Altitude:
(Current/Filed)
19,000ft
Speed:
(Current/Filed)
187kts
Departed: 14-Jul-23 04:22 PM
Arrived: 14-Jul-23 05:45 PM
Distance/Time
Traveled:
Not Available
Distance/Time
To Go:
Arrived

Flight Plot

Page will automatically refresh every two minutes.

Flight plan parsing failed; only flown route is shown


Map Options




Map Legend


Flown Route
Filed Route
Departure Airport
Arrival Airport
Navaid (VOR, NDB)
Fix

Horizontal Profiles

Position Reports

Time Latitude Longitude Heading Altitude Ground
Speed
14-Jul-23 16:18 33.572202 -117.130093 103 1353ft 0kts
14-Jul-23 16:19 33.572019 -117.129942 160 1353ft 10kts
14-Jul-23 16:20 33.570869 -117.129361 9 1353ft 38kts
14-Jul-23 16:21 33.595245 -117.117954 59 1811ft 127kts
14-Jul-23 16:22 33.611859 -117.077215 65 2883ft 140kts
14-Jul-23 16:23 33.628347 -117.035159 63 3986ft 147kts
14-Jul-23 16:24 33.645145 -116.992304 64 4697ft 151kts
14-Jul-23 16:26 33.661694 -116.949595 62 5351ft 132kts
14-Jul-23 16:27 33.676797 -116.910803 62 6015ft 126kts
14-Jul-23 16:28 33.693219 -116.868535 63 6792ft 153kts
14-Jul-23 16:29 33.711111 -116.822327 63 8045ft 153kts
14-Jul-23 16:30 33.728988 -116.776112 62 9352ft 147kts
14-Jul-23 16:31 33.746851 -116.729906 63 10357ft 160kts
14-Jul-23 16:32 33.765536 -116.681446 62 11112ft 161kts
14-Jul-23 16:33 33.784467 -116.632308 62 11669ft 162kts
14-Jul-23 16:34 33.803556 -116.582687 62 12218ft 163kts
14-Jul-23 16:35 33.822222 -116.534100 62 13018ft 149kts
14-Jul-23 16:36 33.838612 -116.491435 62 13864ft 147kts
14-Jul-23 16:37 33.855726 -116.446784 62 14676ft 148kts
14-Jul-23 16:38 33.872901 -116.401906 62 15467ft 149kts
14-Jul-23 16:39 33.890177 -116.356708 61 16239ft 149kts
14-Jul-23 16:40 33.907555 -116.311152 62 17001ft 150kts
14-Jul-23 16:41 33.924997 -116.265384 62 17740ft 151kts
14-Jul-23 16:42 33.942733 -116.218802 62 18340ft 157kts
14-Jul-23 16:43 33.961245 -116.170050 62 18848ft 162kts
14-Jul-23 16:44 33.980987 -116.117995 63 18924ft 179kts
14-Jul-23 16:45 34.002059 -116.062312 63 18891ft 185kts
14-Jul-23 16:46 34.023462 -116.005703 63 18862ft 186kts
14-Jul-23 16:47 34.044972 -115.948727 63 18833ft 187kts
14-Jul-23 16:47 34.062880 -115.901214 63 18815ft 187kts
14-Jul-23 16:49 34.087978 -115.834510 63 18817ft 186kts
14-Jul-23 16:50 34.109451 -115.777335 63 18828ft 186kts
14-Jul-23 16:51 34.124026 -115.716927 72 18834ft 187kts
14-Jul-23 16:52 34.137578 -115.655947 71 18839ft 188kts
14-Jul-23 16:52 34.148978 -115.604498 71 18844ft 188kts
14-Jul-23 16:53 34.162473 -115.543454 71 18849ft 188kts
14-Jul-23 16:55 34.178238 -115.471933 71 18855ft 189kts
14-Jul-23 16:56 34.191702 -115.410683 71 18860ft 189kts
14-Jul-23 16:57 34.205161 -115.349313 72 18866ft 189kts
14-Jul-23 16:57 34.216271 -115.298048 72 18872ft 189kts
14-Jul-23 16:59 34.231797 -115.226140 72 18878ft 190kts
14-Jul-23 16:59 34.242890 -115.174634 72 18875ft 190kts
14-Jul-23 17:00 34.256241 -115.112478 72 18849ft 191kts
14-Jul-23 17:01 34.269546 -115.050371 72 18822ft 191kts
14-Jul-23 17:03 34.285094 -114.977600 72 18792ft 192kts
14-Jul-23 17:03 34.296164 -114.925633 72 18780ft 191kts
14-Jul-23 17:04 34.309423 -114.863241 72 18780ft 191kts
14-Jul-23 17:05 34.322635 -114.800907 72 18780ft 191kts
14-Jul-23 17:06 34.335781 -114.738725 72 18780ft 191kts
14-Jul-23 17:07 34.348909 -114.676441 72 18780ft 191kts
14-Jul-23 17:08 34.361988 -114.614229 72 18780ft 190kts
14-Jul-23 17:09 34.375046 -114.551951 72 18780ft 190kts
14-Jul-23 17:10 34.388015 -114.489916 72 18780ft 190kts
14-Jul-23 17:11 34.401029 -114.427509 72 18779ft 190kts
14-Jul-23 17:12 34.413958 -114.365331 72 18779ft 190kts
14-Jul-23 17:13 34.426874 -114.303051 73 18781ft 190kts
14-Jul-23 17:14 34.439750 -114.240776 73 18780ft 190kts
14-Jul-23 17:15 34.452554 -114.178697 73 18824ft 189kts
14-Jul-23 17:16 34.465252 -114.116957 72 18876ft 188kts
14-Jul-23 17:17 34.477885 -114.055366 72 18927ft 188kts
14-Jul-23 17:18 34.490487 -113.993763 73 18979ft 188kts
14-Jul-23 17:19 34.503056 -113.932138 73 18981ft 189kts
14-Jul-23 17:20 34.515672 -113.870105 73 18981ft 189kts
14-Jul-23 17:21 34.528268 -113.808003 72 18981ft 190kts
14-Jul-23 17:22 34.540838 -113.745860 72 18981ft 190kts
14-Jul-23 17:23 34.553429 -113.683449 73 18981ft 190kts
14-Jul-23 17:24 34.564614 -113.620747 77 18981ft 191kts
14-Jul-23 17:25 34.572651 -113.556918 77 18981ft 191kts
14-Jul-23 17:26 34.580655 -113.492901 77 18981ft 192kts
14-Jul-23 17:27 34.588619 -113.428895 77 18980ft 192kts
14-Jul-23 17:28 34.596568 -113.364740 77 18980ft 192kts
14-Jul-23 17:29 34.604486 -113.300638 78 18981ft 192kts
14-Jul-23 17:30 34.613208 -113.229429 79 17618ft 226kts
14-Jul-23 17:31 34.622337 -113.154639 79 16594ft 220kts
14-Jul-23 17:32 34.631235 -113.081422 79 15686ft 217kts
14-Jul-23 17:33 34.640007 -113.008908 79 14785ft 216kts
14-Jul-23 17:34 34.648684 -112.936694 79 13870ft 216kts
14-Jul-23 17:35 34.657341 -112.864358 79 12923ft 215kts
14-Jul-23 17:36 34.665887 -112.792571 79 11979ft 214kts
14-Jul-23 17:37 34.674359 -112.721020 80 11038ft 214kts
14-Jul-23 17:38 34.682826 -112.649225 80 10096ft 215kts
14-Jul-23 17:39 34.683435 -112.575836 100 8971ft 221kts
14-Jul-23 17:40 34.670461 -112.503856 101 7750ft 205kts
14-Jul-23 17:41 34.672567 -112.438497 50 6190ft 182kts
14-Jul-23 17:42 34.690580 -112.403236 131 5692ft 114kts
14-Jul-23 17:43 34.668942 -112.403916 225 5175ft 81kts
14-Jul-23 17:44 34.654906 -112.419026 222 4987ft 34kts
14-Jul-23 17:45 34.655131 -112.420477 305 4984ft 3kts
14-Jul-23 17:46 34.655154 -112.421427 132 4985ft 0kts
14-Jul-23 17:47 34.655154 -112.421427 132 4985ft 0kts

Navigation Log

Ident Type
Flight plan parsing failed, navigation log unavailable